createdAt,value
2019-03-12T00:02:10.185Z,11.53
2019-03-12T00:07:13.797Z,3.83
2019-03-12T00:12:17.295Z,9.37
2019-03-12T00:17:20.821Z,8.70
2019-03-12T00:22:24.340Z,9.07
2019-03-12T00:27:27.918Z,5.00
2019-03-12T00:32:31.451Z,10.23
2019-03-12T00:37:34.721Z,7.93
2019-03-12T00:42:38.263Z,8.30
2019-03-12T00:47:41.546Z,7.60
2019-03-12T00:52:45.080Z,6.43
2019-03-12T00:57:48.363Z,9.27
2019-03-12T01:02:51.885Z,8.80
2019-03-12T01:07:55.430Z,6.97
2019-03-12T01:12:58.718Z,12.20
2019-03-12T01:18:01.991Z,8.53
2019-03-12T01:23:05.508Z,9.37
2019-03-12T01:28:09.025Z,4.97
2019-03-12T01:33:12.298Z,7.93
2019-03-12T01:38:15.581Z,7.90
2019-03-12T01:43:18.850Z,12.47
2019-03-12T01:48:22.363Z,8.30
2019-03-12T01:53:25.641Z,7.00
2019-03-12T01:58:28.922Z,11.80
2019-03-12T02:03:32.445Z,8.10
2019-03-12T02:08:35.966Z,6.07
2019-03-12T02:13:39.481Z,8.17
2019-03-12T02:18:43.002Z,7.67
2019-03-12T02:23:46.527Z,7.60
2019-03-12T02:28:50.044Z,11.57
2019-03-12T02:33:53.504Z,7.83
2019-03-12T02:38:56.795Z,11.37
2019-03-12T02:44:00.072Z,9.90
2019-03-12T02:49:03.623Z,12.33
2019-03-12T02:54:07.112Z,10.47
2019-03-12T02:59:10.464Z,11.73
2019-03-12T03:04:13.744Z,8.43
2019-03-12T03:09:17.085Z,6.77
2019-03-12T03:14:32.115Z,9.17
2019-03-12T03:19:35.639Z,11.03
2019-03-12T03:24:39.155Z,8.17
2019-03-12T03:29:42.690Z,11.30
2019-03-12T03:34:46.252Z,9.13
2019-03-12T03:39:49.573Z,11.03
2019-03-12T03:44:52.862Z,9.10
2019-03-12T03:49:56.134Z,7.13
2019-03-12T03:54:59.409Z,8.27
2019-03-12T04:00:02.967Z,8.63
2019-03-12T04:05:07.386Z,12.40
2019-03-12T04:10:12.948Z,8.83
2019-03-12T04:15:18.236Z,7.40
2019-03-12T04:20:21.509Z,12.43
2019-03-12T04:25:24.893Z,8.87
2019-03-12T04:30:28.150Z,10.73
2019-03-12T04:35:33.161Z,9.33
2019-03-12T04:40:36.683Z,9.57
2019-03-12T04:45:40.199Z,9.33
2019-03-12T04:50:43.478Z,11.03
2019-03-12T04:55:46.995Z,9.37
2019-03-12T05:00:50.518Z,5.80
2019-03-12T05:05:53.785Z,8.30
2019-03-12T05:10:57.313Z,10.67
2019-03-12T05:16:00.826Z,7.80
2019-03-12T05:21:04.351Z,9.13
2019-03-12T05:26:07.616Z,6.93
2019-03-12T05:31:10.905Z,11.47
2019-03-12T05:36:14.173Z,8.77
2019-03-12T05:41:17.689Z,5.73
2019-03-12T05:46:20.957Z,8.70
2019-03-12T05:51:24.231Z,9.20
2019-03-12T05:56:27.582Z,5.97
2019-03-12T06:01:31.111Z,9.13
2019-03-12T06:06:34.713Z,10.07
2019-03-12T06:11:38.228Z,7.73
2019-03-12T06:16:41.501Z,7.83
2019-03-12T06:21:45.028Z,5.53
2019-03-12T06:26:48.299Z,7.67
2019-03-12T06:31:53.465Z,8.43
2019-03-12T06:36:58.622Z,6.10
2019-03-12T06:42:10.035Z,5.33
2019-03-12T06:47:14.951Z,6.40
2019-03-12T06:52:36.058Z,10.37
2019-03-12T06:57:44.143Z,7.13
2019-03-12T07:02:51.715Z,8.27
2019-03-12T07:07:59.268Z,6.70
2019-03-12T07:13:13.016Z,9.30
2019-03-12T07:18:27.219Z,6.83
2019-03-12T07:23:32.131Z,4.40
2019-03-12T07:28:49.531Z,4.50
2019-03-12T07:33:43.930Z,6.50
2019-03-12T07:38:51.653Z,9.10
2019-03-12T07:43:59.218Z,9.30
2019-03-12T07:49:19.981Z,10.27
2019-03-12T07:54:42.352Z,6.13
2019-03-12T07:59:49.919Z,5.57
2019-03-12T08:04:57.849Z,6.77
2019-03-12T08:10:08.789Z,7.70
2019-03-12T08:15:30.865Z,7.17
2019-03-12T08:20:48.029Z,5.73
2019-03-12T08:25:53.180Z,6.43
2019-03-12T08:30:58.338Z,6.43
2019-03-12T08:36:05.662Z,4.83
2019-03-12T08:41:16.569Z,11.40
2019-03-12T08:46:24.409Z,6.17
2019-03-12T08:51:35.701Z,6.40
2019-03-12T08:56:46.806Z,10.00
2019-03-12T09:01:51.961Z,2.80
2019-03-12T09:07:05.260Z,4.80
2019-03-12T09:12:09.725Z,7.57
2019-03-12T09:17:23.306Z,5.67
2019-03-12T09:22:31.129Z,5.90
2019-03-12T09:27:41.526Z,6.13
2019-03-12T09:32:52.137Z,5.30
2019-03-12T09:38:09.298Z,8.57
2019-03-12T09:43:23.218Z,11.23
2019-03-12T09:48:43.483Z,6.97
2019-03-12T09:53:48.367Z,4.23
2019-03-12T09:58:53.301Z,5.43
2019-03-12T10:04:07.034Z,4.47
2019-03-12T10:09:32.366Z,4.47
2019-03-12T10:14:37.277Z,5.80
2019-03-12T10:19:51.090Z,9.90
2019-03-12T10:24:56.255Z,6.53
2019-03-12T10:30:10.381Z,6.80
2019-03-12T10:35:24.427Z,5.90
2019-03-12T10:40:32.266Z,5.90
2019-03-12T10:45:43.467Z,6.00
2019-03-12T10:50:46.753Z,5.13
2019-03-12T10:55:50.283Z,7.50
2019-03-12T11:00:53.835Z,5.73
2019-03-12T11:05:57.108Z,2.63
2019-03-12T11:11:00.633Z,5.83
2019-03-12T11:16:04.151Z,6.67
2019-03-12T11:21:07.424Z,5.93
2019-03-12T11:26:10.698Z,6.40
2019-03-12T11:31:14.220Z,3.53
2019-03-12T11:36:17.755Z,3.70
2019-03-12T11:41:21.031Z,3.90
2019-03-12T11:46:24.319Z,4.77
2019-03-12T11:51:27.874Z,4.90
2019-03-12T11:56:31.158Z,3.03
2019-03-12T12:01:34.464Z,4.60
2019-03-12T12:06:42.540Z,4.63
2019-03-12T12:11:42.976Z,2.47
2019-03-12T12:16:46.355Z,2.60
2019-03-12T12:21:49.720Z,4.20
2019-03-12T12:26:53.242Z,1.97
2019-03-12T12:31:56.764Z,4.67
2019-03-12T12:37:00.290Z,4.93
2019-03-12T12:42:03.818Z,5.40
2019-03-12T12:47:07.342Z,4.43
2019-03-12T12:52:10.860Z,3.20
2019-03-12T12:57:14.399Z,4.67
2019-03-12T13:02:17.743Z,2.60
2019-03-12T13:07:21.267Z,4.50
2019-03-12T13:12:24.914Z,6.63
2019-03-12T13:17:28.174Z,2.97
2019-03-12T13:22:31.694Z,5.50
2019-03-12T13:27:42.290Z,5.07
2019-03-12T13:32:40.296Z,2.83
2019-03-12T13:37:43.702Z,4.93
2019-03-12T13:42:47.291Z,4.47
2019-03-12T13:47:50.802Z,2.20
2019-03-12T13:52:55.982Z,4.83
2019-03-12T13:58:00.866Z,7.70
2019-03-12T14:03:04.144Z,5.80
2019-03-12T14:08:07.731Z,3.37
2019-03-12T14:13:14.010Z,2.97
2019-03-12T14:18:17.345Z,4.23
2019-03-12T14:23:29.209Z,3.60
2019-03-12T14:28:32.725Z,4.60
2019-03-12T14:33:36.025Z,4.17
2019-03-12T14:38:39.311Z,4.37
2019-03-12T14:43:42.577Z,3.30
2019-03-12T14:48:51.432Z,4.57
2019-03-12T14:54:04.104Z,2.40
2019-03-12T14:59:07.469Z,2.87
2019-03-12T15:04:11.016Z,2.93
2019-03-12T15:09:18.273Z,4.90
2019-03-12T15:14:21.545Z,1.83
2019-03-12T15:19:24.889Z,4.23
2019-03-12T15:24:28.159Z,1.53
2019-03-12T15:29:31.675Z,2.00
2019-03-12T15:34:35.216Z,4.13
2019-03-12T15:39:38.474Z,2.53
2019-03-12T15:44:41.994Z,2.07
2019-03-12T15:49:45.266Z,2.70
2019-03-12T15:54:48.880Z,4.53
2019-03-12T15:59:52.379Z,3.30
2019-03-12T16:04:55.650Z,3.37
2019-03-12T16:09:58.920Z,4.40
2019-03-12T16:15:05.247Z,4.67
2019-03-12T16:20:14.571Z,3.67
2019-03-12T16:25:18.993Z,5.33
2019-03-12T16:30:22.744Z,1.40
2019-03-12T16:35:26.015Z,3.03
2019-03-12T16:40:29.293Z,1.93
2019-03-12T16:45:32.570Z,2.83
2019-03-12T16:50:35.849Z,2.40
2019-03-12T16:55:39.120Z,5.97
2019-03-12T17:00:42.641Z,2.07
2019-03-12T17:05:45.909Z,4.13
2019-03-12T17:10:56.013Z,5.00
2019-03-12T17:15:55.118Z,3.67
2019-03-12T17:20:58.750Z,7.70
2019-03-12T17:26:02.017Z,1.13
2019-03-12T17:31:05.537Z,5.67
2019-03-12T17:36:08.819Z,3.63
2019-03-12T17:41:12.101Z,2.70
2019-03-12T17:46:15.382Z,2.93
2019-03-12T17:51:18.665Z,1.90
2019-03-12T17:56:21.955Z,2.27
2019-03-12T18:01:29.764Z,1.73
2019-03-12T18:06:30.223Z,2.93
2019-03-12T18:11:33.498Z,3.23
2019-03-12T18:16:41.326Z,2.33
2019-03-12T18:21:42.021Z,2.93
2019-03-12T18:26:48.834Z,1.20
2019-03-12T18:31:52.363Z,1.97
2019-03-12T18:36:55.642Z,2.63
2019-03-12T18:41:58.916Z,2.80
2019-03-12T18:47:02.419Z,1.70
2019-03-12T18:52:05.936Z,2.23
2019-03-12T18:57:09.448Z,2.07
2019-03-12T19:02:12.969Z,1.47
2019-03-12T19:07:18.359Z,1.67
2019-03-12T19:12:21.242Z,5.13
2019-03-12T19:17:24.519Z,6.03
2019-03-12T19:22:28.040Z,4.00
2019-03-12T19:27:31.591Z,4.07
2019-03-12T19:32:36.752Z,2.23
2019-03-12T19:37:40.099Z,3.60
2019-03-12T19:42:43.399Z,2.27
2019-03-12T19:47:46.676Z,1.83
2019-03-12T19:52:49.957Z,2.93
2019-03-12T19:57:53.527Z,3.23
2019-03-12T20:03:09.621Z,2.20
2019-03-12T20:08:02.025Z,3.20
2019-03-12T20:13:40.729Z,2.20
2019-03-12T20:19:10.925Z,4.27
2019-03-12T20:24:50.527Z,4.30
2019-03-12T20:30:29.139Z,2.30
2019-03-12T20:36:07.512Z,2.20
2019-03-12T20:41:37.913Z,2.37
2019-03-12T20:47:13.430Z,3.50
2019-03-12T20:52:28.417Z,3.53
2019-03-12T20:58:10.147Z,2.17
2019-03-12T21:03:19.203Z,4.17
2019-03-12T21:08:40.341Z,3.53
2019-03-12T21:14:04.588Z,2.40
2019-03-12T21:19:29.545Z,2.73
2019-03-12T21:24:35.988Z,2.57
2019-03-12T21:29:45.023Z,1.30
2019-03-12T21:34:48.814Z,2.87
2019-03-12T21:39:55.764Z,4.40
2019-03-12T21:44:57.086Z,0.87
2019-03-12T21:50:00.429Z,1.03
2019-03-12T21:55:05.814Z,0.63
2019-03-12T22:00:12.252Z,0.30
2019-03-12T22:05:15.539Z,0.30
2019-03-12T22:10:18.794Z,0.97
2019-03-12T22:15:22.168Z,1.30
2019-03-12T22:20:25.444Z,1.87
2019-03-12T22:25:28.740Z,1.87
2019-03-12T22:30:32.248Z,2.23
2019-03-12T22:35:35.800Z,3.30
2019-03-12T22:40:39.072Z,4.00
2019-03-12T22:45:42.585Z,3.00
2019-03-12T22:50:45.849Z,4.03
2019-03-12T22:55:49.134Z,4.40
2019-03-12T23:00:53.036Z,4.40
2019-03-12T23:05:56.303Z,3.97
2019-03-12T23:10:59.811Z,3.00
2019-03-12T23:16:03.079Z,3.03
2019-03-12T23:21:06.346Z,3.67
2019-03-12T23:26:09.858Z,3.10
2019-03-12T23:31:13.199Z,2.47
2019-03-12T23:36:16.705Z,2.67
2019-03-12T23:41:20.218Z,2.23
2019-03-12T23:46:23.487Z,4.37
2019-03-12T23:51:27.008Z,2.80
2019-03-12T23:56:30.523Z,2.83
